Weather at Ramon Air Base

Public forecast

Using degrees Celsius for public forecast. Weather courtesy of forecast.io.

Closest aviation weather report (METAR) to Ramon Air Base

Closest report is El Arish International Airport, 46.4 nm (86.0 km) WNW.

2024/05/18 09:00 (retrieved 55 minutes ago)

HEAR 180900Z 36006KT CAVOK 31/14 Q1016 NOSIG

Closest aviation forecast (TAF) to Ramon Air Base

Closest forecast is El Arish International Airport, 46.4 nm (86.0 km) WNW.

2024/05/18 06:05 (retrieved 4 hours ago)

TAF HEAR 180500Z 1806/1912 08008KT 6000 SCT025 TEMPO 1806/1808 VRB03KT 2000 BR